sensor_id;sensor_type;location;lat;lon;timestamp;P1;durP1;ratioP1;P2;durP2;ratioP2
79128;SDS011;68529;43.286;23.360;2023-11-21T00:00:24;2.63;;;2.43;;
79128;SDS011;68529;43.286;23.360;2023-11-21T00:02:49;3.77;;;2.30;;
79128;SDS011;68529;43.286;23.360;2023-11-21T00:05:15;3.93;;;2.50;;
79128;SDS011;68529;43.286;23.360;2023-11-21T00:07:41;4.23;;;2.40;;
79128;SDS011;68529;43.286;23.360;2023-11-21T00:10:07;3.87;;;2.10;;
79128;SDS011;68529;43.286;23.360;2023-11-21T00:12:34;6.10;;;2.57;;
79128;SDS011;68529;43.286;23.360;2023-11-21T00:14:59;3.83;;;2.50;;
79128;SDS011;68529;43.286;23.360;2023-11-21T00:17:25;4.03;;;2.67;;
79128;SDS011;68529;43.286;23.360;2023-11-21T00:19:50;4.23;;;2.33;;
79128;SDS011;68529;43.286;23.360;2023-11-21T00:22:18;2.70;;;2.30;;
79128;SDS011;68529;43.286;23.360;2023-11-21T00:24:44;3.60;;;2.57;;
79128;SDS011;68529;43.286;23.360;2023-11-21T00:27:10;2.97;;;2.33;;
79128;SDS011;68529;43.286;23.360;2023-11-21T00:29:36;4.13;;;2.60;;
79128;SDS011;68529;43.286;23.360;2023-11-21T00:32:01;5.50;;;3.00;;
79128;SDS011;68529;43.286;23.360;2023-11-21T00:34:27;5.23;;;3.03;;
79128;SDS011;68529;43.286;23.360;2023-11-21T00:36:52;5.50;;;3.73;;
79128;SDS011;68529;43.286;23.360;2023-11-21T00:39:18;6.83;;;3.40;;
79128;SDS011;68529;43.286;23.360;2023-11-21T00:41:43;5.97;;;3.27;;
79128;SDS011;68529;43.286;23.360;2023-11-21T00:44:10;5.57;;;3.30;;
79128;SDS011;68529;43.286;23.360;2023-11-21T00:46:35;5.63;;;3.20;;
79128;SDS011;68529;43.286;23.360;2023-11-21T00:49:02;6.50;;;3.23;;
79128;SDS011;68529;43.286;23.360;2023-11-21T00:51:29;4.60;;;3.50;;
79128;SDS011;68529;43.286;23.360;2023-11-21T00:53:55;4.73;;;3.20;;
79128;SDS011;68529;43.286;23.360;2023-11-21T00:56:20;5.10;;;3.10;;
79128;SDS011;68529;43.286;23.360;2023-11-21T00:58:45;4.00;;;3.20;;
79128;SDS011;68529;43.286;23.360;2023-11-21T01:01:17;4.37;;;3.10;;
79128;SDS011;68529;43.286;23.360;2023-11-21T01:03:43;8.70;;;3.57;;
79128;SDS011;68529;43.286;23.360;2023-11-21T01:06:10;5.70;;;3.20;;
79128;SDS011;68529;43.286;23.360;2023-11-21T01:08:36;4.67;;;3.27;;
79128;SDS011;68529;43.286;23.360;2023-11-21T01:11:01;4.47;;;2.90;;
79128;SDS011;68529;43.286;23.360;2023-11-21T01:13:27;4.97;;;3.20;;
79128;SDS011;68529;43.286;23.360;2023-11-21T01:15:53;6.13;;;3.13;;
79128;SDS011;68529;43.286;23.360;2023-11-21T01:18:19;4.67;;;3.40;;
79128;SDS011;68529;43.286;23.360;2023-11-21T01:20:44;4.47;;;2.73;;
79128;SDS011;68529;43.286;23.360;2023-11-21T01:23:11;3.27;;;2.50;;
79128;SDS011;68529;43.286;23.360;2023-11-21T01:25:40;3.70;;;2.77;;
79128;SDS011;68529;43.286;23.360;2023-11-21T01:28:05;4.37;;;3.00;;
79128;SDS011;68529;43.286;23.360;2023-11-21T01:30:31;4.33;;;2.63;;
79128;SDS011;68529;43.286;23.360;2023-11-21T01:32:57;3.83;;;2.80;;
79128;SDS011;68529;43.286;23.360;2023-11-21T01:35:23;4.07;;;2.70;;
79128;SDS011;68529;43.286;23.360;2023-11-21T01:37:48;4.27;;;2.53;;
79128;SDS011;68529;43.286;23.360;2023-11-21T01:40:14;3.07;;;2.27;;
79128;SDS011;68529;43.286;23.360;2023-11-21T01:42:39;3.80;;;2.50;;
79128;SDS011;68529;43.286;23.360;2023-11-21T01:45:06;4.27;;;2.63;;
79128;SDS011;68529;43.286;23.360;2023-11-21T01:47:32;4.03;;;2.73;;
79128;SDS011;68529;43.286;23.360;2023-11-21T01:49:59;4.40;;;2.60;;
79128;SDS011;68529;43.286;23.360;2023-11-21T01:52:24;3.77;;;2.23;;
79128;SDS011;68529;43.286;23.360;2023-11-21T01:54:50;5.20;;;2.60;;
79128;SDS011;68529;43.286;23.360;2023-11-21T01:57:16;4.13;;;2.60;;
79128;SDS011;68529;43.286;23.360;2023-11-21T01:59:42;3.77;;;2.93;;
79128;SDS011;68529;43.286;23.360;2023-11-21T02:02:09;3.83;;;2.67;;
79128;SDS011;68529;43.286;23.360;2023-11-21T02:04:35;5.23;;;2.83;;
79128;SDS011;68529;43.286;23.360;2023-11-21T02:07:02;4.20;;;2.80;;
79128;SDS011;68529;43.286;23.360;2023-11-21T02:09:31;3.80;;;2.57;;
79128;SDS011;68529;43.286;23.360;2023-11-21T02:12:03;4.20;;;2.90;;
79128;SDS011;68529;43.286;23.360;2023-11-21T02:14:29;5.30;;;3.10;;
79128;SDS011;68529;43.286;23.360;2023-11-21T02:16:55;5.93;;;3.33;;
79128;SDS011;68529;43.286;23.360;2023-11-21T02:19:22;5.73;;;3.40;;
79128;SDS011;68529;43.286;23.360;2023-11-21T02:21:50;4.80;;;3.13;;
79128;SDS011;68529;43.286;23.360;2023-11-21T02:24:18;5.33;;;3.17;;
79128;SDS011;68529;43.286;23.360;2023-11-21T02:26:45;5.17;;;3.50;;
79128;SDS011;68529;43.286;23.360;2023-11-21T02:29:11;4.13;;;2.80;;
79128;SDS011;68529;43.286;23.360;2023-11-21T02:31:38;5.07;;;3.20;;
79128;SDS011;68529;43.286;23.360;2023-11-21T02:34:12;5.73;;;3.87;;
79128;SDS011;68529;43.286;23.360;2023-11-21T02:36:40;5.60;;;4.00;;
79128;SDS011;68529;43.286;23.360;2023-11-21T02:39:07;4.10;;;3.03;;
79128;SDS011;68529;43.286;23.360;2023-11-21T02:41:33;6.60;;;3.13;;
79128;SDS011;68529;43.286;23.360;2023-11-21T02:43:59;5.00;;;3.67;;
79128;SDS011;68529;43.286;23.360;2023-11-21T02:46:25;5.50;;;3.23;;
79128;SDS011;68529;43.286;23.360;2023-11-21T02:48:51;5.30;;;3.43;;
79128;SDS011;68529;43.286;23.360;2023-11-21T02:51:19;5.83;;;3.43;;
79128;SDS011;68529;43.286;23.360;2023-11-21T02:53:44;5.37;;;3.20;;
79128;SDS011;68529;43.286;23.360;2023-11-21T02:56:11;4.90;;;3.40;;
79128;SDS011;68529;43.286;23.360;2023-11-21T02:58:37;5.07;;;3.20;;
79128;SDS011;68529;43.286;23.360;2023-11-21T03:01:02;4.07;;;3.00;;
79128;SDS011;68529;43.286;23.360;2023-11-21T03:03:32;5.33;;;2.97;;
79128;SDS011;68529;43.286;23.360;2023-11-21T03:05:57;5.90;;;3.50;;
79128;SDS011;68529;43.286;23.360;2023-11-21T03:08:23;6.37;;;3.20;;
79128;SDS011;68529;43.286;23.360;2023-11-21T03:10:48;4.27;;;3.27;;
79128;SDS011;68529;43.286;23.360;2023-11-21T03:13:13;5.40;;;3.60;;
79128;SDS011;68529;43.286;23.360;2023-11-21T03:15:39;6.13;;;3.67;;
79128;SDS011;68529;43.286;23.360;2023-11-21T03:18:04;4.43;;;3.30;;
79128;SDS011;68529;43.286;23.360;2023-11-21T03:20:30;5.80;;;3.90;;
79128;SDS011;68529;43.286;23.360;2023-11-21T03:22:55;6.23;;;3.60;;
79128;SDS011;68529;43.286;23.360;2023-11-21T03:25:20;3.50;;;3.00;;
79128;SDS011;68529;43.286;23.360;2023-11-21T03:27:49;4.67;;;3.03;;
79128;SDS011;68529;43.286;23.360;2023-11-21T03:30:14;4.43;;;2.70;;
79128;SDS011;68529;43.286;23.360;2023-11-21T03:32:40;5.43;;;3.10;;
79128;SDS011;68529;43.286;23.360;2023-11-21T03:35:05;4.03;;;2.83;;
79128;SDS011;68529;43.286;23.360;2023-11-21T03:37:31;4.50;;;2.93;;
79128;SDS011;68529;43.286;23.360;2023-11-21T03:39:56;4.93;;;3.30;;
79128;SDS011;68529;43.286;23.360;2023-11-21T03:42:22;5.03;;;3.80;;
79128;SDS011;68529;43.286;23.360;2023-11-21T03:44:47;3.63;;;3.00;;
79128;SDS011;68529;43.286;23.360;2023-11-21T03:47:12;4.30;;;2.63;;
79128;SDS011;68529;43.286;23.360;2023-11-21T03:49:38;6.17;;;2.57;;
79128;SDS011;68529;43.286;23.360;2023-11-21T03:52:04;3.77;;;2.47;;
79128;SDS011;68529;43.286;23.360;2023-11-21T03:54:29;3.13;;;2.30;;
79128;SDS011;68529;43.286;23.360;2023-11-21T03:56:55;4.60;;;2.50;;
79128;SDS011;68529;43.286;23.360;2023-11-21T03:59:21;4.67;;;2.80;;
79128;SDS011;68529;43.286;23.360;2023-11-21T04:01:49;4.47;;;2.70;;
79128;SDS011;68529;43.286;23.360;2023-11-21T04:04:15;3.73;;;2.37;;
79128;SDS011;68529;43.286;23.360;2023-11-21T04:06:40;4.20;;;2.77;;
79128;SDS011;68529;43.286;23.360;2023-11-21T04:09:06;3.47;;;2.20;;
79128;SDS011;68529;43.286;23.360;2023-11-21T04:11:32;3.47;;;2.30;;
79128;SDS011;68529;43.286;23.360;2023-11-21T04:13:57;4.83;;;2.37;;
79128;SDS011;68529;43.286;23.360;2023-11-21T04:16:22;4.03;;;2.77;;
79128;SDS011;68529;43.286;23.360;2023-11-21T04:18:48;2.73;;;2.00;;
79128;SDS011;68529;43.286;23.360;2023-11-21T04:21:13;2.70;;;2.27;;
79128;SDS011;68529;43.286;23.360;2023-11-21T04:23:39;4.00;;;2.20;;
79128;SDS011;68529;43.286;23.360;2023-11-21T04:26:05;2.83;;;2.07;;
79128;SDS011;68529;43.286;23.360;2023-11-21T04:28:31;3.13;;;2.20;;
79128;SDS011;68529;43.286;23.360;2023-11-21T04:30:56;3.50;;;2.80;;
79128;SDS011;68529;43.286;23.360;2023-11-21T04:33:21;3.00;;;2.20;;
79128;SDS011;68529;43.286;23.360;2023-11-21T04:35:47;3.10;;;2.33;;
79128;SDS011;68529;43.286;23.360;2023-11-21T04:38:13;3.37;;;2.60;;
79128;SDS011;68529;43.286;23.360;2023-11-21T04:40:39;6.13;;;3.20;;
79128;SDS011;68529;43.286;23.360;2023-11-21T04:43:04;4.27;;;2.80;;
79128;SDS011;68529;43.286;23.360;2023-11-21T04:45:30;4.50;;;2.83;;
79128;SDS011;68529;43.286;23.360;2023-11-21T04:47:55;6.37;;;3.00;;
79128;SDS011;68529;43.286;23.360;2023-11-21T04:50:21;4.20;;;3.17;;
79128;SDS011;68529;43.286;23.360;2023-11-21T04:52:46;4.90;;;3.13;;
79128;SDS011;68529;43.286;23.360;2023-11-21T04:55:12;5.10;;;2.90;;
79128;SDS011;68529;43.286;23.360;2023-11-21T04:57:37;4.30;;;3.07;;
79128;SDS011;68529;43.286;23.360;2023-11-21T05:00:04;5.20;;;3.40;;
79128;SDS011;68529;43.286;23.360;2023-11-21T05:02:31;4.93;;;3.77;;
79128;SDS011;68529;43.286;23.360;2023-11-21T05:05:00;3.83;;;3.40;;
79128;SDS011;68529;43.286;23.360;2023-11-21T05:07:25;5.60;;;3.97;;
79128;SDS011;68529;43.286;23.360;2023-11-21T05:09:54;4.77;;;3.70;;
79128;SDS011;68529;43.286;23.360;2023-11-21T05:12:21;4.33;;;3.27;;
79128;SDS011;68529;43.286;23.360;2023-11-21T05:14:48;4.03;;;3.37;;
79128;SDS011;68529;43.286;23.360;2023-11-21T05:17:14;4.57;;;3.30;;
79128;SDS011;68529;43.286;23.360;2023-11-21T05:19:39;5.97;;;3.00;;
79128;SDS011;68529;43.286;23.360;2023-11-21T05:22:05;4.93;;;3.10;;
79128;SDS011;68529;43.286;23.360;2023-11-21T05:24:31;4.37;;;3.03;;
79128;SDS011;68529;43.286;23.360;2023-11-21T05:26:56;5.63;;;2.70;;
79128;SDS011;68529;43.286;23.360;2023-11-21T05:29:22;3.37;;;2.50;;
79128;SDS011;68529;43.286;23.360;2023-11-21T05:31:47;3.13;;;2.60;;
79128;SDS011;68529;43.286;23.360;2023-11-21T05:34:12;3.67;;;2.43;;
79128;SDS011;68529;43.286;23.360;2023-11-21T05:36:38;4.17;;;2.70;;
79128;SDS011;68529;43.286;23.360;2023-11-21T05:39:03;4.33;;;2.67;;
79128;SDS011;68529;43.286;23.360;2023-11-21T05:41:29;4.17;;;3.17;;
79128;SDS011;68529;43.286;23.360;2023-11-21T05:43:55;6.93;;;3.83;;
79128;SDS011;68529;43.286;23.360;2023-11-21T05:46:20;5.50;;;4.17;;
79128;SDS011;68529;43.286;23.360;2023-11-21T05:48:46;7.43;;;5.70;;
79128;SDS011;68529;43.286;23.360;2023-11-21T05:51:12;7.90;;;4.40;;
79128;SDS011;68529;43.286;23.360;2023-11-21T05:53:38;6.13;;;5.47;;
79128;SDS011;68529;43.286;23.360;2023-11-21T05:56:04;5.07;;;3.43;;
79128;SDS011;68529;43.286;23.360;2023-11-21T05:58:29;7.73;;;5.07;;
79128;SDS011;68529;43.286;23.360;2023-11-21T06:00:55;8.57;;;5.47;;
79128;SDS011;68529;43.286;23.360;2023-11-21T06:03:20;4.90;;;3.57;;
79128;SDS011;68529;43.286;23.360;2023-11-21T06:05:46;4.53;;;3.40;;
79128;SDS011;68529;43.286;23.360;2023-11-21T06:08:11;6.80;;;3.13;;
79128;SDS011;68529;43.286;23.360;2023-11-21T06:10:36;5.63;;;2.90;;
79128;SDS011;68529;43.286;23.360;2023-11-21T06:13:02;7.20;;;3.53;;
79128;SDS011;68529;43.286;23.360;2023-11-21T06:15:29;4.30;;;3.20;;
79128;SDS011;68529;43.286;23.360;2023-11-21T06:17:54;4.83;;;3.47;;
79128;SDS011;68529;43.286;23.360;2023-11-21T06:20:20;4.37;;;3.40;;
79128;SDS011;68529;43.286;23.360;2023-11-21T06:22:48;5.10;;;4.53;;
79128;SDS011;68529;43.286;23.360;2023-11-21T06:25:15;7.57;;;4.37;;
79128;SDS011;68529;43.286;23.360;2023-11-21T06:27:44;5.30;;;4.00;;
79128;SDS011;68529;43.286;23.360;2023-11-21T06:30:12;4.43;;;3.67;;
79128;SDS011;68529;43.286;23.360;2023-11-21T06:32:38;5.60;;;4.17;;
79128;SDS011;68529;43.286;23.360;2023-11-21T06:35:05;4.67;;;2.97;;
79128;SDS011;68529;43.286;23.360;2023-11-21T06:37:31;7.67;;;3.57;;
79128;SDS011;68529;43.286;23.360;2023-11-21T06:39:57;5.97;;;3.80;;
79128;SDS011;68529;43.286;23.360;2023-11-21T06:42:24;6.37;;;3.97;;
79128;SDS011;68529;43.286;23.360;2023-11-21T06:44:50;5.77;;;3.57;;
79128;SDS011;68529;43.286;23.360;2023-11-21T06:47:22;4.70;;;3.67;;
79128;SDS011;68529;43.286;23.360;2023-11-21T06:49:50;6.10;;;4.60;;
79128;SDS011;68529;43.286;23.360;2023-11-21T06:52:16;6.77;;;4.63;;
79128;SDS011;68529;43.286;23.360;2023-11-21T06:54:41;7.10;;;5.40;;
79128;SDS011;68529;43.286;23.360;2023-11-21T06:57:07;7.77;;;7.07;;
79128;SDS011;68529;43.286;23.360;2023-11-21T06:59:32;8.47;;;5.20;;
79128;SDS011;68529;43.286;23.360;2023-11-21T07:01:58;8.77;;;6.20;;
79128;SDS011;68529;43.286;23.360;2023-11-21T07:04:23;10.90;;;6.30;;
79128;SDS011;68529;43.286;23.360;2023-11-21T07:06:50;8.33;;;6.27;;
79128;SDS011;68529;43.286;23.360;2023-11-21T07:09:16;19.17;;;11.67;;
79128;SDS011;68529;43.286;23.360;2023-11-21T07:11:42;8.00;;;5.17;;
79128;SDS011;68529;43.286;23.360;2023-11-21T07:14:07;7.10;;;5.00;;
79128;SDS011;68529;43.286;23.360;2023-11-21T07:16:37;16.60;;;10.20;;
79128;SDS011;68529;43.286;23.360;2023-11-21T07:19:06;7.83;;;6.33;;
79128;SDS011;68529;43.286;23.360;2023-11-21T07:21:35;7.37;;;5.40;;
79128;SDS011;68529;43.286;23.360;2023-11-21T07:24:01;8.73;;;4.90;;
79128;SDS011;68529;43.286;23.360;2023-11-21T07:26:27;7.33;;;5.60;;
79128;SDS011;68529;43.286;23.360;2023-11-21T07:28:53;7.23;;;5.63;;
79128;SDS011;68529;43.286;23.360;2023-11-21T07:31:19;7.67;;;4.80;;
79128;SDS011;68529;43.286;23.360;2023-11-21T07:33:44;7.17;;;5.77;;
79128;SDS011;68529;43.286;23.360;2023-11-21T07:36:13;8.90;;;6.80;;
79128;SDS011;68529;43.286;23.360;2023-11-21T07:38:39;9.30;;;6.80;;
79128;SDS011;68529;43.286;23.360;2023-11-21T07:41:05;6.57;;;5.90;;
79128;SDS011;68529;43.286;23.360;2023-11-21T07:43:32;10.60;;;9.03;;
79128;SDS011;68529;43.286;23.360;2023-11-21T07:46:03;11.43;;;9.27;;
79128;SDS011;68529;43.286;23.360;2023-11-21T07:48:30;9.73;;;8.00;;
79128;SDS011;68529;43.286;23.360;2023-11-21T07:50:56;7.70;;;6.93;;
79128;SDS011;68529;43.286;23.360;2023-11-21T07:53:23;6.33;;;5.67;;
79128;SDS011;68529;43.286;23.360;2023-11-21T07:55:49;6.77;;;6.07;;
79128;SDS011;68529;43.286;23.360;2023-11-21T07:58:14;6.60;;;5.80;;
79128;SDS011;68529;43.286;23.360;2023-11-21T08:00:40;8.13;;;5.83;;
79128;SDS011;68529;43.286;23.360;2023-11-21T08:03:05;7.77;;;6.20;;
79128;SDS011;68529;43.286;23.360;2023-11-21T08:05:31;5.97;;;5.37;;
79128;SDS011;68529;43.286;23.360;2023-11-21T08:07:56;8.30;;;7.50;;
79128;SDS011;68529;43.286;23.360;2023-11-21T08:10:22;10.27;;;8.77;;
79128;SDS011;68529;43.286;23.360;2023-11-21T08:12:47;9.93;;;6.23;;
79128;SDS011;68529;43.286;23.360;2023-11-21T08:15:13;12.00;;;8.17;;
79128;SDS011;68529;43.286;23.360;2023-11-21T08:17:39;10.10;;;6.80;;
79128;SDS011;68529;43.286;23.360;2023-11-21T08:20:05;7.13;;;5.77;;
79128;SDS011;68529;43.286;23.360;2023-11-21T08:22:31;7.37;;;6.20;;
79128;SDS011;68529;43.286;23.360;2023-11-21T08:24:57;7.50;;;5.40;;
79128;SDS011;68529;43.286;23.360;2023-11-21T08:27:23;6.80;;;6.10;;
79128;SDS011;68529;43.286;23.360;2023-11-21T08:29:48;4.77;;;4.27;;
79128;SDS011;68529;43.286;23.360;2023-11-21T08:32:14;5.07;;;4.57;;
79128;SDS011;68529;43.286;23.360;2023-11-21T08:34:40;4.97;;;4.50;;
79128;SDS011;68529;43.286;23.360;2023-11-21T08:37:08;4.60;;;4.10;;
79128;SDS011;68529;43.286;23.360;2023-11-21T08:39:33;6.43;;;4.80;;
79128;SDS011;68529;43.286;23.360;2023-11-21T08:41:58;6.90;;;6.20;;
79128;SDS011;68529;43.286;23.360;2023-11-21T08:44:24;10.03;;;6.07;;
79128;SDS011;68529;43.286;23.360;2023-11-21T08:46:50;6.37;;;4.97;;
79128;SDS011;68529;43.286;23.360;2023-11-21T08:49:15;10.43;;;9.23;;
79128;SDS011;68529;43.286;23.360;2023-11-21T08:51:40;13.83;;;12.53;;
79128;SDS011;68529;43.286;23.360;2023-11-21T08:54:06;7.57;;;6.70;;
79128;SDS011;68529;43.286;23.360;2023-11-21T08:56:33;18.30;;;16.43;;
79128;SDS011;68529;43.286;23.360;2023-11-21T08:59:00;7.20;;;6.50;;
79128;SDS011;68529;43.286;23.360;2023-11-21T09:01:31;9.00;;;6.77;;
79128;SDS011;68529;43.286;23.360;2023-11-21T09:03:57;5.17;;;4.63;;
79128;SDS011;68529;43.286;23.360;2023-11-21T09:06:23;4.40;;;4.00;;
79128;SDS011;68529;43.286;23.360;2023-11-21T09:08:49;5.53;;;4.00;;
79128;SDS011;68529;43.286;23.360;2023-11-21T09:11:15;9.57;;;8.67;;
79128;SDS011;68529;43.286;23.360;2023-11-21T09:13:42;6.20;;;4.50;;
79128;SDS011;68529;43.286;23.360;2023-11-21T09:16:07;4.20;;;3.77;;
79128;SDS011;68529;43.286;23.360;2023-11-21T09:18:33;6.37;;;4.10;;
79128;SDS011;68529;43.286;23.360;2023-11-21T09:20:59;5.10;;;4.30;;
79128;SDS011;68529;43.286;23.360;2023-11-21T09:23:24;7.13;;;5.57;;
79128;SDS011;68529;43.286;23.360;2023-11-21T09:25:50;14.40;;;9.57;;
79128;SDS011;68529;43.286;23.360;2023-11-21T09:28:16;16.57;;;12.37;;
79128;SDS011;68529;43.286;23.360;2023-11-21T09:30:42;7.70;;;6.60;;
79128;SDS011;68529;43.286;23.360;2023-11-21T09:33:08;5.00;;;3.80;;
79128;SDS011;68529;43.286;23.360;2023-11-21T09:35:36;3.97;;;3.20;;
79128;SDS011;68529;43.286;23.360;2023-11-21T09:38:03;3.90;;;2.80;;
79128;SDS011;68529;43.286;23.360;2023-11-21T09:40:35;3.30;;;1.93;;
79128;SDS011;68529;43.286;23.360;2023-11-21T09:43:00;4.87;;;2.10;;
79128;SDS011;68529;43.286;23.360;2023-11-21T09:45:34;1.90;;;1.80;;
79128;SDS011;68529;43.286;23.360;2023-11-21T09:48:00;4.17;;;1.80;;
79128;SDS011;68529;43.286;23.360;2023-11-21T09:50:26;4.03;;;3.05;;
79128;SDS011;68529;43.286;23.360;2023-11-21T09:55:18;4.30;;;3.42;;
79128;SDS011;68529;43.286;23.360;2023-11-21T09:57:46;3.30;;;3.00;;
79128;SDS011;68529;43.286;23.360;2023-11-21T10:00:14;3.70;;;2.33;;
79128;SDS011;68529;43.286;23.360;2023-11-21T10:02:43;3.08;;;2.78;;
79128;SDS011;68529;43.286;23.360;2023-11-21T10:05:09;2.85;;;2.60;;
79128;SDS011;68529;43.286;23.360;2023-11-21T10:07:37;2.45;;;2.25;;
79128;SDS011;68529;43.286;23.360;2023-11-21T10:10:05;3.33;;;2.30;;
79128;SDS011;68529;43.286;23.360;2023-11-21T10:12:34;2.97;;;2.08;;
79128;SDS011;68529;43.286;23.360;2023-11-21T10:15:00;3.13;;;2.38;;
79128;SDS011;68529;43.286;23.360;2023-11-21T10:17:28;2.60;;;2.17;;
79128;SDS011;68529;43.286;23.360;2023-11-21T10:19:55;3.80;;;2.87;;
79128;SDS011;68529;43.286;23.360;2023-11-21T10:22:22;2.97;;;2.30;;
79128;SDS011;68529;43.286;23.360;2023-11-21T10:24:48;1.90;;;1.60;;
79128;SDS011;68529;43.286;23.360;2023-11-21T10:27:13;3.23;;;3.03;;
79128;SDS011;68529;43.286;23.360;2023-11-21T10:29:39;3.33;;;2.87;;
79128;SDS011;68529;43.286;23.360;2023-11-21T10:32:05;3.10;;;2.20;;
79128;SDS011;68529;43.286;23.360;2023-11-21T10:34:30;2.43;;;1.70;;
79128;SDS011;68529;43.286;23.360;2023-11-21T10:36:56;2.00;;;1.70;;
79128;SDS011;68529;43.286;23.360;2023-11-21T10:39:23;2.53;;;2.33;;
79128;SDS011;68529;43.286;23.360;2023-11-21T10:41:52;2.20;;;1.80;;
79128;SDS011;68529;43.286;23.360;2023-11-21T10:44:19;1.50;;;1.40;;
79128;SDS011;68529;43.286;23.360;2023-11-21T10:46:49;5.83;;;5.10;;
79128;SDS011;68529;43.286;23.360;2023-11-21T10:49:17;7.37;;;6.23;;
79128;SDS011;68529;43.286;23.360;2023-11-21T10:51:45;3.93;;;3.60;;
79128;SDS011;68529;43.286;23.360;2023-11-21T10:54:13;5.60;;;5.10;;
79128;SDS011;68529;43.286;23.360;2023-11-21T10:56:42;1.83;;;1.73;;
79128;SDS011;68529;43.286;23.360;2023-11-21T10:59:12;2.70;;;1.83;;
79128;SDS011;68529;43.286;23.360;2023-11-21T11:01:40;2.40;;;2.00;;
79128;SDS011;68529;43.286;23.360;2023-11-21T11:04:08;4.00;;;1.90;;
79128;SDS011;68529;43.286;23.360;2023-11-21T11:06:40;1.90;;;1.80;;
79128;SDS011;68529;43.286;23.360;2023-11-21T11:09:07;3.77;;;2.27;;
79128;SDS011;68529;43.286;23.360;2023-11-21T11:11:38;2.17;;;1.87;;
79128;SDS011;68529;43.286;23.360;2023-11-21T11:14:06;3.23;;;1.60;;
79128;SDS011;68529;43.286;23.360;2023-11-21T11:16:35;1.63;;;1.53;;
79128;SDS011;68529;43.286;23.360;2023-11-21T11:19:04;2.60;;;1.73;;
79128;SDS011;68529;43.286;23.360;2023-11-21T11:38:30;4.03;;;3.53;;
79128;SDS011;68529;43.286;23.360;2023-11-21T11:40:57;2.77;;;2.57;;
79128;SDS011;68529;43.286;23.360;2023-11-21T11:43:29;3.00;;;2.60;;
79128;SDS011;68529;43.286;23.360;2023-11-21T11:45:59;2.00;;;1.80;;
79128;SDS011;68529;43.286;23.360;2023-11-21T11:48:29;2.30;;;2.10;;
79128;SDS011;68529;43.286;23.360;2023-11-21T11:51:01;3.37;;;1.90;;
79128;SDS011;68529;43.286;23.360;2023-11-21T11:53:40;3.00;;;2.20;;
79128;SDS011;68529;43.286;23.360;2023-11-21T11:56:22;2.83;;;1.70;;
79128;SDS011;68529;43.286;23.360;2023-11-21T11:58:53;4.90;;;3.97;;
79128;SDS011;68529;43.286;23.360;2023-11-21T12:01:20;2.23;;;1.47;;
79128;SDS011;68529;43.286;23.360;2023-11-21T12:04:22;3.27;;;2.40;;
79128;SDS011;68529;43.286;23.360;2023-11-21T12:06:52;3.63;;;2.70;;
79128;SDS011;68529;43.286;23.360;2023-11-21T12:09:19;1.70;;;1.60;;
79128;SDS011;68529;43.286;23.360;2023-11-21T12:11:46;2.63;;;2.07;;
79128;SDS011;68529;43.286;23.360;2023-11-21T12:14:13;3.03;;;2.50;;
79128;SDS011;68529;43.286;23.360;2023-11-21T12:16:39;3.43;;;3.13;;
79128;SDS011;68529;43.286;23.360;2023-11-21T12:19:05;3.37;;;2.13;;
79128;SDS011;68529;43.286;23.360;2023-11-21T12:21:31;3.03;;;2.00;;
79128;SDS011;68529;43.286;23.360;2023-11-21T12:23:57;3.07;;;2.30;;
79128;SDS011;68529;43.286;23.360;2023-11-21T12:26:23;2.83;;;1.93;;
79128;SDS011;68529;43.286;23.360;2023-11-21T12:28:55;2.43;;;1.80;;
79128;SDS011;68529;43.286;23.360;2023-11-21T12:31:21;1.70;;;1.60;;
79128;SDS011;68529;43.286;23.360;2023-11-21T12:33:49;3.23;;;1.80;;
79128;SDS011;68529;43.286;23.360;2023-11-21T12:36:16;3.33;;;2.10;;
79128;SDS011;68529;43.286;23.360;2023-11-21T12:38:42;2.67;;;1.70;;
79128;SDS011;68529;43.286;23.360;2023-11-21T12:41:08;2.13;;;1.93;;
79128;SDS011;68529;43.286;23.360;2023-11-21T12:43:35;3.87;;;2.10;;
79128;SDS011;68529;43.286;23.360;2023-11-21T12:46:04;3.93;;;1.87;;
79128;SDS011;68529;43.286;23.360;2023-11-21T12:48:45;3.17;;;2.87;;
79128;SDS011;68529;43.286;23.360;2023-11-21T12:51:12;2.80;;;2.30;;
79128;SDS011;68529;43.286;23.360;2023-11-21T12:53:39;2.93;;;1.67;;
79128;SDS011;68529;43.286;23.360;2023-11-21T12:56:06;3.80;;;2.00;;
79128;SDS011;68529;43.286;23.360;2023-11-21T12:58:44;2.13;;;1.93;;
79128;SDS011;68529;43.286;23.360;2023-11-21T13:01:13;3.03;;;2.73;;
79128;SDS011;68529;43.286;23.360;2023-11-21T13:03:43;6.33;;;2.10;;
79128;SDS011;68529;43.286;23.360;2023-11-21T13:06:10;4.27;;;2.10;;
79128;SDS011;68529;43.286;23.360;2023-11-21T13:08:37;2.80;;;2.50;;
79128;SDS011;68529;43.286;23.360;2023-11-21T13:11:04;5.03;;;2.57;;
79128;SDS011;68529;43.286;23.360;2023-11-21T13:13:31;3.87;;;2.20;;
79128;SDS011;68529;43.286;23.360;2023-11-21T13:15:57;7.20;;;3.27;;
79128;SDS011;68529;43.286;23.360;2023-11-21T13:18:29;3.43;;;2.37;;
79128;SDS011;68529;43.286;23.360;2023-11-21T13:20:56;3.07;;;1.80;;
79128;SDS011;68529;43.286;23.360;2023-11-21T13:23:28;2.60;;;2.00;;
79128;SDS011;68529;43.286;23.360;2023-11-21T13:25:54;3.10;;;2.40;;
79128;SDS011;68529;43.286;23.360;2023-11-21T13:28:20;3.00;;;1.90;;
79128;SDS011;68529;43.286;23.360;2023-11-21T13:30:47;3.43;;;2.20;;
79128;SDS011;68529;43.286;23.360;2023-11-21T13:33:13;2.37;;;2.10;;
79128;SDS011;68529;43.286;23.360;2023-11-21T13:35:42;5.83;;;3.17;;
79128;SDS011;68529;43.286;23.360;2023-11-21T13:38:13;2.90;;;2.30;;
79128;SDS011;68529;43.286;23.360;2023-11-21T13:40:42;4.50;;;1.90;;
79128;SDS011;68529;43.286;23.360;2023-11-21T13:43:14;3.13;;;2.30;;
79128;SDS011;68529;43.286;23.360;2023-11-21T13:45:40;2.33;;;1.93;;
79128;SDS011;68529;43.286;23.360;2023-11-21T13:48:07;6.37;;;2.93;;
79128;SDS011;68529;43.286;23.360;2023-11-21T13:50:41;2.03;;;1.80;;
79128;SDS011;68529;43.286;23.360;2023-11-21T13:53:20;2.23;;;1.70;;
79128;SDS011;68529;43.286;23.360;2023-11-21T13:55:51;3.17;;;1.93;;
79128;SDS011;68529;43.286;23.360;2023-11-21T13:58:23;2.10;;;1.73;;
79128;SDS011;68529;43.286;23.360;2023-11-21T14:00:59;2.90;;;2.60;;
79128;SDS011;68529;43.286;23.360;2023-11-21T14:03:31;3.30;;;2.40;;
79128;SDS011;68529;43.286;23.360;2023-11-21T14:06:09;3.70;;;2.10;;
79128;SDS011;68529;43.286;23.360;2023-11-21T14:08:39;2.40;;;1.50;;
79128;SDS011;68529;43.286;23.360;2023-11-21T14:11:06;8.83;;;3.20;;
79128;SDS011;68529;43.286;23.360;2023-11-21T14:13:32;5.07;;;3.03;;
79128;SDS011;68529;43.286;23.360;2023-11-21T14:15:58;9.73;;;7.53;;
79128;SDS011;68529;43.286;23.360;2023-11-21T14:18:27;3.70;;;2.70;;
79128;SDS011;68529;43.286;23.360;2023-11-21T14:21:01;8.30;;;5.87;;
79128;SDS011;68529;43.286;23.360;2023-11-21T14:23:26;1.77;;;1.53;;
79128;SDS011;68529;43.286;23.360;2023-11-21T14:25:53;2.47;;;2.23;;
79128;SDS011;68529;43.286;23.360;2023-11-21T14:28:19;7.97;;;4.03;;
79128;SDS011;68529;43.286;23.360;2023-11-21T14:30:45;13.13;;;7.77;;
79128;SDS011;68529;43.286;23.360;2023-11-21T14:33:11;8.83;;;5.90;;
79128;SDS011;68529;43.286;23.360;2023-11-21T14:35:37;7.50;;;6.73;;
79128;SDS011;68529;43.286;23.360;2023-11-21T14:38:02;7.87;;;7.03;;
79128;SDS011;68529;43.286;23.360;2023-11-21T14:40:30;9.53;;;7.00;;
79128;SDS011;68529;43.286;23.360;2023-11-21T14:43:01;6.97;;;6.27;;
79128;SDS011;68529;43.286;23.360;2023-11-21T14:45:30;9.30;;;8.40;;
79128;SDS011;68529;43.286;23.360;2023-11-21T14:47:56;8.17;;;7.37;;
79128;SDS011;68529;43.286;23.360;2023-11-21T14:50:31;7.27;;;6.57;;